Altamont, South Dakota
Current Conditions -  °F | °C
As of 2:13 AM on Thursday 29 Jan 2015 (Local Time) from KCNB Reporting Station
Overcast Overcast  
Wind Chill: 19°   Ceiling: 1500
Heat Index: 32°   Visibility: 10mi
Dew Point: 29°   Wind: 24mph
Humidity: 87%   Direction: 320°NW
Pressure: 30.08"   Gusts: 31mph
Location:  44.7895°N, 96.7201°W
Report Text: KCNB 290813Z AUTO 32021G27KT 10SM OVC015 00/M02 A3008 RMK AO2 T00001019
Loading
Personal Weather Stations






























Interactive Weather Map New forecast layout! Learn more

10-Day Weather Forecast

Advertisements
Track Severe Weather on mobile